createdAt,value
2023-08-03T00:01:40.178Z,15.31
2023-08-03T00:04:09.743Z,15.29
2023-08-03T00:06:39.371Z,15.28
2023-08-03T00:09:10.364Z,15.31
2023-08-03T00:11:40.104Z,15.27
2023-08-03T00:14:09.701Z,15.23
2023-08-03T00:16:39.267Z,15.20
2023-08-03T00:19:08.819Z,15.21
2023-08-03T00:21:38.337Z,15.16
2023-08-03T00:24:09.190Z,15.17
2023-08-03T00:26:38.647Z,15.18
2023-08-03T00:29:08.203Z,15.15
2023-08-03T00:31:37.735Z,15.20
2023-08-03T00:34:07.287Z,15.18
2023-08-03T00:36:36.763Z,15.20
2023-08-03T00:39:06.857Z,15.21
2023-08-03T00:41:37.878Z,15.21
2023-08-03T00:44:07.408Z,15.21
2023-08-03T00:46:36.951Z,15.22
2023-08-03T00:49:06.644Z,15.23
2023-08-03T00:51:37.693Z,15.24
2023-08-03T00:54:08.573Z,15.26
2023-08-03T00:56:39.786Z,15.26
2023-08-03T00:59:11.538Z,15.31
2023-08-03T01:01:43.185Z,15.31
2023-08-03T01:04:13.204Z,15.30
2023-08-03T01:06:42.895Z,15.31
2023-08-03T01:09:12.584Z,15.36
2023-08-03T01:11:45.710Z,15.40
2023-08-03T01:14:15.712Z,15.47
2023-08-03T01:16:45.317Z,15.48
2023-08-03T01:19:15.850Z,15.44
2023-08-03T01:21:48.296Z,15.43
2023-08-03T01:24:19.171Z,15.44
2023-08-03T01:26:49.916Z,15.46
2023-08-03T01:29:19.446Z,15.43
2023-08-03T01:31:51.513Z,15.45
2023-08-03T01:34:21.035Z,15.38
2023-08-03T01:36:50.645Z,15.37
2023-08-03T01:39:22.900Z,15.36
2023-08-03T01:41:52.525Z,15.40
2023-08-03T01:44:28.336Z,15.37
2023-08-03T01:47:00.834Z,15.37
2023-08-03T01:49:33.711Z,15.40
2023-08-03T01:52:03.288Z,15.41
2023-08-03T01:54:34.166Z,15.45
2023-08-03T01:57:03.722Z,15.46
2023-08-03T01:59:33.316Z,15.47
2023-08-03T02:02:03.035Z,15.39
2023-08-03T02:04:32.663Z,15.45
2023-08-03T02:07:10.810Z,15.44
2023-08-03T02:09:41.636Z,15.40
2023-08-03T02:12:11.658Z,15.45
2023-08-03T02:14:41.141Z,15.39
2023-08-03T02:17:10.821Z,15.35
2023-08-03T02:19:40.554Z,15.39
2023-08-03T02:22:10.191Z,15.35
2023-08-03T02:24:41.143Z,15.33
2023-08-03T02:27:10.683Z,15.35
2023-08-03T02:29:40.206Z,15.38
2023-08-03T02:32:10.290Z,15.47
2023-08-03T02:34:41.267Z,15.39
2023-08-03T02:37:11.159Z,15.44
2023-08-03T02:39:42.609Z,15.43
2023-08-03T02:42:12.640Z,15.33
2023-08-03T02:44:46.359Z,15.31
2023-08-03T02:47:17.208Z,15.34
2023-08-03T02:49:46.876Z,15.46
2023-08-03T02:52:16.466Z,15.51
2023-08-03T02:54:51.809Z,15.49
2023-08-03T02:57:23.827Z,15.39
2023-08-03T02:59:55.371Z,15.36
2023-08-03T03:02:25.989Z,15.47
2023-08-03T03:04:56.612Z,15.46
2023-08-03T03:07:28.336Z,15.50
2023-08-03T03:10:01.822Z,15.47
2023-08-03T03:12:33.045Z,15.47
2023-08-03T03:15:02.800Z,15.39
2023-08-03T03:17:32.322Z,15.37
2023-08-03T03:20:04.670Z,15.41
2023-08-03T03:22:34.321Z,15.41
2023-08-03T03:25:06.736Z,15.47
2023-08-03T03:27:36.263Z,15.43
2023-08-03T03:30:08.096Z,15.38
2023-08-03T03:32:37.763Z,15.32
2023-08-03T03:35:09.231Z,15.34
2023-08-03T03:37:39.354Z,15.21
2023-08-03T03:40:12.755Z,15.24
2023-08-03T03:42:46.337Z,15.26
2023-08-03T03:45:16.091Z,15.21
2023-08-03T03:47:45.959Z,15.09
2023-08-03T03:50:15.813Z,15.02
2023-08-03T03:52:45.639Z,14.93
2023-08-03T03:55:20.902Z,14.88
2023-08-03T03:57:56.280Z,14.80
2023-08-03T04:00:25.870Z,14.74
2023-08-03T04:02:56.196Z,14.68
2023-08-03T04:05:27.765Z,14.63
2023-08-03T04:07:57.324Z,14.61
2023-08-03T04:10:28.240Z,14.57
2023-08-03T04:12:58.293Z,14.57
2023-08-03T04:15:28.329Z,14.56
2023-08-03T04:17:57.885Z,14.51
2023-08-03T04:20:32.575Z,14.45
2023-08-03T04:23:02.092Z,14.42
2023-08-03T04:25:34.305Z,14.52
2023-08-03T04:28:08.079Z,14.48
2023-08-03T04:30:40.647Z,14.53
2023-08-03T04:33:10.993Z,14.76
2023-08-03T04:35:42.192Z,14.96
2023-08-03T04:38:18.747Z,15.03
2023-08-03T04:40:55.635Z,14.97
2023-08-03T04:43:29.379Z,15.06
2023-08-03T04:45:58.997Z,15.21
2023-08-03T04:48:29.700Z,15.23
2023-08-03T04:51:00.300Z,15.22
2023-08-03T04:53:31.165Z,15.27
2023-08-03T04:56:02.479Z,15.38
2023-08-03T04:58:32.574Z,15.41
2023-08-03T05:01:02.780Z,15.44
2023-08-03T05:03:33.534Z,15.52
2023-08-03T05:06:04.950Z,15.53
2023-08-03T05:08:35.676Z,15.57
2023-08-03T05:11:06.576Z,15.61
2023-08-03T05:13:41.414Z,15.65
2023-08-03T05:16:11.786Z,15.74
2023-08-03T05:18:41.592Z,15.79
2023-08-03T05:21:11.932Z,15.85
2023-08-03T05:23:41.969Z,15.88
2023-08-03T05:26:12.902Z,15.87
2023-08-03T05:28:42.540Z,15.99
2023-08-03T05:31:12.094Z,16.07
2023-08-03T05:33:41.697Z,16.19
2023-08-03T05:36:11.802Z,16.21
2023-08-03T05:38:41.379Z,16.22
2023-08-03T05:41:18.321Z,16.21
2023-08-03T05:43:48.610Z,16.31
2023-08-03T05:46:20.317Z,16.30
2023-08-03T05:48:53.327Z,16.47
2023-08-03T05:51:29.343Z,16.50
2023-08-03T05:53:59.880Z,16.65
2023-08-03T05:56:30.741Z,16.78
2023-08-03T05:59:00.373Z,16.85
2023-08-03T06:01:29.948Z,16.89
2023-08-03T06:03:59.477Z,16.95
2023-08-03T06:06:30.254Z,17.04
2023-08-03T06:09:01.652Z,17.16
2023-08-03T06:11:33.949Z,17.18
2023-08-03T06:14:03.672Z,17.16
2023-08-03T06:16:33.321Z,17.22
2023-08-03T06:19:02.983Z,17.33
2023-08-03T06:21:32.489Z,17.31
2023-08-03T06:24:02.592Z,17.36
2023-08-03T06:26:37.866Z,17.45
2023-08-03T06:29:07.858Z,17.47
2023-08-03T06:31:40.981Z,17.50
2023-08-03T06:34:13.809Z,17.57
2023-08-03T06:36:45.299Z,17.56
2023-08-03T06:39:15.082Z,17.63
2023-08-03T06:41:46.153Z,17.70
2023-08-03T06:44:19.375Z,17.73
2023-08-03T06:46:48.908Z,17.81
2023-08-03T06:49:18.427Z,17.89
2023-08-03T06:51:48.104Z,18.04
2023-08-03T06:54:17.804Z,18.02
2023-08-03T06:56:48.685Z,18.04
2023-08-03T06:59:22.207Z,18.13
2023-08-03T07:01:55.993Z,18.21
2023-08-03T07:04:25.476Z,18.25
2023-08-03T07:06:54.942Z,18.32
2023-08-03T07:09:25.617Z,18.38
2023-08-03T07:11:56.554Z,18.45
2023-08-03T07:14:26.066Z,18.47
2023-08-03T07:16:55.522Z,18.53
2023-08-03T07:19:25.050Z,18.62
2023-08-03T07:21:56.792Z,18.79
2023-08-03T07:24:29.232Z,18.80
2023-08-03T07:27:01.456Z,18.79
2023-08-03T07:29:31.461Z,18.88
2023-08-03T07:32:00.977Z,19.10
2023-08-03T07:34:30.754Z,19.11
2023-08-03T07:37:01.742Z,19.11
2023-08-03T07:39:47.734Z,19.15
2023-08-03T07:42:35.931Z,19.15
2023-08-03T07:45:08.233Z,19.18
2023-08-03T07:47:37.950Z,19.24
2023-08-03T07:50:09.508Z,19.27
2023-08-03T07:52:40.367Z,19.22
2023-08-03T07:55:10.857Z,19.36
2023-08-03T07:57:42.138Z,19.42
2023-08-03T08:00:14.166Z,19.44
2023-08-03T08:02:43.808Z,19.44
2023-08-03T08:05:13.657Z,19.60
2023-08-03T08:07:43.607Z,19.59
2023-08-03T08:10:13.411Z,19.68
2023-08-03T08:12:44.770Z,19.78
2023-08-03T08:15:15.224Z,19.88
2023-08-03T08:17:44.710Z,19.93
2023-08-03T08:20:14.727Z,19.87
2023-08-03T08:22:44.237Z,19.79
2023-08-03T08:25:14.159Z,19.86
2023-08-03T08:27:45.192Z,19.82
2023-08-03T08:30:14.833Z,19.87
2023-08-03T08:32:44.293Z,19.98
2023-08-03T08:35:13.942Z,20.08
2023-08-03T08:37:43.509Z,20.12
2023-08-03T08:40:13.970Z,20.15
2023-08-03T08:42:44.878Z,20.25
2023-08-03T08:45:14.396Z,20.34
2023-08-03T08:47:44.075Z,20.46
2023-08-03T08:56:05.503Z,20.72
2023-08-03T09:00:49.113Z,20.80
2023-08-03T09:03:19.320Z,20.85
2023-08-03T09:08:52.864Z,20.99
2023-08-03T09:11:40.132Z,21.05
2023-08-03T09:14:15.503Z,21.18
2023-08-03T09:16:45.221Z,21.18
2023-08-03T09:19:14.743Z,21.16
2023-08-03T09:27:05.177Z,21.21
2023-08-03T09:29:36.039Z,21.31
2023-08-03T09:32:27.319Z,21.35
2023-08-03T09:34:57.370Z,21.35
2023-08-03T09:40:10.716Z,21.60
2023-08-03T09:42:42.307Z,21.77
2023-08-03T09:47:47.213Z,21.87
2023-08-03T09:50:17.102Z,21.95
2023-08-03T09:52:50.327Z,22.05
2023-08-03T09:55:30.518Z,22.08
2023-08-03T09:58:05.573Z,22.08
2023-08-03T10:00:37.086Z,21.89
2023-08-03T10:03:11.651Z,21.92
2023-08-03T10:05:50.062Z,22.05
2023-08-03T10:08:33.406Z,22.15
2023-08-03T10:11:05.143Z,22.35
2023-08-03T10:13:37.670Z,22.44
2023-08-03T10:16:09.583Z,22.52
2023-08-03T10:21:13.801Z,22.77
2023-08-03T10:24:19.075Z,22.76
2023-08-03T10:26:55.520Z,22.89
2023-08-03T10:29:59.468Z,23.21
2023-08-03T10:32:32.517Z,23.25
2023-08-03T10:35:40.946Z,23.45
2023-08-03T10:38:21.025Z,23.45
2023-08-03T10:40:50.503Z,23.45
2023-08-03T10:43:20.042Z,23.36
2023-08-03T10:45:49.586Z,23.36
2023-08-03T10:48:36.030Z,23.23
2023-08-03T10:51:05.913Z,23.25
2023-08-03T10:53:36.069Z,23.19
2023-08-03T10:56:12.103Z,23.28
2023-08-03T10:58:48.829Z,23.37
2023-08-03T11:01:24.864Z,23.52
2023-08-03T11:03:56.710Z,23.70
2023-08-03T11:06:27.591Z,23.78
2023-08-03T11:09:00.277Z,23.97
2023-08-03T11:11:33.845Z,24.09
2023-08-03T11:14:05.598Z,23.68
2023-08-03T11:16:37.030Z,23.67
2023-08-03T11:19:07.986Z,23.82
2023-08-03T11:21:37.495Z,24.04
2023-08-03T11:24:07.361Z,24.40
2023-08-03T11:26:36.898Z,24.62
2023-08-03T11:29:08.277Z,24.49
2023-08-03T11:31:44.106Z,24.55
2023-08-03T11:34:16.502Z,24.68
2023-08-03T11:36:49.936Z,24.92
2023-08-03T11:39:20.730Z,25.07
2023-08-03T11:41:51.328Z,25.23
2023-08-03T11:44:23.792Z,25.27
2023-08-03T11:47:08.778Z,25.34
2023-08-03T11:49:39.773Z,25.54
2023-08-03T11:52:09.815Z,25.71
2023-08-03T11:54:41.169Z,25.55
2023-08-03T11:57:28.645Z,25.25
2023-08-03T11:59:58.534Z,25.36
2023-08-03T12:02:41.803Z,25.54
2023-08-03T12:05:18.068Z,25.50
2023-08-03T12:10:28.753Z,25.45
2023-08-03T12:13:02.439Z,25.49
2023-08-03T12:15:32.638Z,25.63
2023-08-03T12:18:02.128Z,25.61
2023-08-03T12:20:36.523Z,25.59
2023-08-03T12:23:06.290Z,25.70
2023-08-03T12:25:37.030Z,25.74
2023-08-03T12:28:10.662Z,25.61
2023-08-03T12:30:41.781Z,25.41
2023-08-03T12:33:12.736Z,25.42
2023-08-03T12:35:46.723Z,25.85
2023-08-03T12:38:33.574Z,25.85
2023-08-03T12:41:09.840Z,25.92
2023-08-03T12:43:39.341Z,26.12
2023-08-03T12:46:14.386Z,26.06
2023-08-03T12:48:44.216Z,26.02
2023-08-03T12:51:15.364Z,25.89
2023-08-03T12:53:45.775Z,25.90
2023-08-03T12:56:15.472Z,25.87
2023-08-03T12:58:45.703Z,25.96
2023-08-03T13:01:15.542Z,25.76
2023-08-03T13:03:45.079Z,25.56
2023-08-03T13:06:15.911Z,25.66
2023-08-03T13:08:45.472Z,25.70
2023-08-03T13:11:15.367Z,25.61
2023-08-03T13:13:44.881Z,25.57
2023-08-03T13:16:14.731Z,25.29
2023-08-03T13:18:44.393Z,24.81
2023-08-03T13:21:17.191Z,25.07
2023-08-03T13:23:47.970Z,25.56
2023-08-03T13:26:17.745Z,25.95
2023-08-03T13:28:51.565Z,26.12
2023-08-03T13:31:22.112Z,26.37
2023-08-03T13:33:52.550Z,26.61
2023-08-03T13:36:23.542Z,26.50
2023-08-03T13:38:53.203Z,26.60
2023-08-03T13:41:23.657Z,26.89
2023-08-03T13:43:53.233Z,27.03
2023-08-03T13:46:22.936Z,27.21
2023-08-03T13:48:52.468Z,27.44
2023-08-03T13:51:24.835Z,27.67
2023-08-03T13:53:56.401Z,27.86
2023-08-03T13:58:58.558Z,27.90
2023-08-03T14:04:00.632Z,27.57
2023-08-03T14:06:32.191Z,27.50
2023-08-03T14:11:58.761Z,27.74
2023-08-03T14:16:57.444Z,28.22
2023-08-03T14:19:27.478Z,28.02
2023-08-03T14:21:59.019Z,27.76
2023-08-03T14:24:29.366Z,27.89
2023-08-03T14:26:58.833Z,27.53
2023-08-03T14:29:28.317Z,27.01
2023-08-03T14:31:57.809Z,26.99
2023-08-03T14:35:35.726Z,27.29
2023-08-03T14:37:18.076Z,27.68
2023-08-03T14:39:48.121Z,27.75
2023-08-03T14:42:17.746Z,27.64
2023-08-03T14:44:51.135Z,27.03
2023-08-03T14:47:21.270Z,27.06
2023-08-03T14:52:25.297Z,27.16
2023-08-03T14:54:55.437Z,27.15
2023-08-03T14:57:25.140Z,27.35
2023-08-03T14:59:55.119Z,27.40
2023-08-03T15:02:26.005Z,27.25
2023-08-03T15:04:56.654Z,27.41
2023-08-03T15:07:27.848Z,27.11
2023-08-03T15:09:59.066Z,27.23
2023-08-03T15:12:28.621Z,27.16
2023-08-03T15:15:09.660Z,27.23
2023-08-03T15:17:40.301Z,27.44
2023-08-03T15:20:12.416Z,27.49
2023-08-03T15:22:44.185Z,27.33
2023-08-03T15:25:14.491Z,27.40
2023-08-03T15:27:58.325Z,27.26
2023-08-03T15:30:58.824Z,27.22
2023-08-03T15:33:21.483Z,27.01
2023-08-03T15:35:52.492Z,26.66
2023-08-03T15:38:24.413Z,26.13
2023-08-03T15:41:02.754Z,25.72
2023-08-03T15:43:40.546Z,25.40
2023-08-03T15:46:19.710Z,25.21
2023-08-03T15:51:24.552Z,24.94
2023-08-03T15:54:05.555Z,25.03
2023-08-03T15:56:39.429Z,24.94
2023-08-03T15:59:09.504Z,24.97
2023-08-03T16:01:39.040Z,25.15
2023-08-03T16:04:08.684Z,25.19
2023-08-03T16:06:38.153Z,25.05
2023-08-03T16:09:09.156Z,24.91
2023-08-03T16:11:53.286Z,24.77
2023-08-03T16:14:24.491Z,24.76
2023-08-03T16:16:54.042Z,24.78
2023-08-03T16:19:24.160Z,24.86
2023-08-03T16:21:53.922Z,24.79
2023-08-03T16:24:24.837Z,24.60
2023-08-03T16:26:55.092Z,24.47
2023-08-03T16:29:25.773Z,24.29
2023-08-03T16:31:55.540Z,24.22
2023-08-03T16:34:28.025Z,24.20
2023-08-03T16:36:59.063Z,24.09
2023-08-03T16:39:30.010Z,24.02
2023-08-03T16:41:59.574Z,23.83
2023-08-03T16:44:29.068Z,23.81
2023-08-03T16:46:58.532Z,23.81
2023-08-03T16:49:28.346Z,23.93
2023-08-03T16:51:57.927Z,24.02
2023-08-03T16:54:28.864Z,24.09
2023-08-03T16:56:58.351Z,23.99
2023-08-03T16:59:27.848Z,24.02
2023-08-03T17:01:57.400Z,23.93
2023-08-03T17:04:26.923Z,23.83
2023-08-03T17:06:56.722Z,23.65
2023-08-03T17:09:26.257Z,23.53
2023-08-03T17:11:57.490Z,23.48
2023-08-03T17:14:27.512Z,23.40
2023-08-03T17:16:58.006Z,23.40
2023-08-03T17:19:27.675Z,23.31
2023-08-03T17:21:57.430Z,23.23
2023-08-03T17:24:27.209Z,23.18
2023-08-03T17:26:58.244Z,23.11
2023-08-03T17:29:27.732Z,23.08
2023-08-03T17:32:00.216Z,23.02
2023-08-03T17:34:29.689Z,22.87
2023-08-03T17:37:13.122Z,22.83
2023-08-03T17:39:42.687Z,22.74
2023-08-03T17:42:13.616Z,22.71
2023-08-03T17:44:43.125Z,22.63
2023-08-03T17:47:12.664Z,22.55
2023-08-03T17:49:42.224Z,22.50
2023-08-03T17:52:11.815Z,22.47
2023-08-03T17:54:41.418Z,22.37
2023-08-03T17:57:11.478Z,22.28
2023-08-03T17:59:42.314Z,22.22
2023-08-03T18:02:36.171Z,22.07
2023-08-03T18:05:06.997Z,22.06
2023-08-03T18:07:36.483Z,21.95
2023-08-03T18:10:07.092Z,21.84
2023-08-03T18:12:45.817Z,21.81
2023-08-03T18:15:17.016Z,21.75
2023-08-03T18:17:46.618Z,21.67
2023-08-03T18:20:16.679Z,21.58
2023-08-03T18:22:46.182Z,21.51
2023-08-03T18:25:15.845Z,21.44
2023-08-03T18:27:45.396Z,21.43
2023-08-03T18:30:16.313Z,21.40
2023-08-03T18:32:46.660Z,21.34
2023-08-03T18:37:45.212Z,21.23
2023-08-03T18:40:14.843Z,21.20
2023-08-03T18:42:44.383Z,21.24
2023-08-03T18:45:14.176Z,21.18
2023-08-03T18:47:45.184Z,21.13
2023-08-03T18:50:14.890Z,21.06
2023-08-03T18:55:15.398Z,20.92
2023-08-03T18:57:44.919Z,20.85
2023-08-03T19:00:16.283Z,20.80
2023-08-03T19:02:47.316Z,20.76
2023-08-03T19:05:17.127Z,20.70
2023-08-03T19:07:47.624Z,20.68
2023-08-03T19:10:17.242Z,20.59
2023-08-03T19:12:46.819Z,20.52
2023-08-03T19:15:16.674Z,20.43
2023-08-03T19:17:47.574Z,20.34
2023-08-03T19:20:17.217Z,20.29
2023-08-03T19:22:46.696Z,20.25
2023-08-03T19:25:16.455Z,20.14
2023-08-03T19:27:46.103Z,20.07
2023-08-03T19:30:15.656Z,20.02
2023-08-03T19:32:48.194Z,19.98
2023-08-03T19:35:18.501Z,19.87
2023-08-03T19:37:48.355Z,19.77
2023-08-03T19:40:18.045Z,19.66
2023-08-03T19:42:47.613Z,19.60
2023-08-03T19:45:21.364Z,19.58
2023-08-03T19:47:54.324Z,19.44
2023-08-03T19:50:27.485Z,19.38
2023-08-03T19:55:31.089Z,19.26
2023-08-03T20:08:15.893Z,19.05
2023-08-03T20:10:46.496Z,19.05
2023-08-03T20:13:15.966Z,19.00
2023-08-03T20:18:22.138Z,19.02
2023-08-03T20:20:52.001Z,19.02
2023-08-03T20:23:21.542Z,19.03
2023-08-03T20:25:51.000Z,19.04
2023-08-03T20:30:53.152Z,18.98
2023-08-03T20:33:24.790Z,18.93
2023-08-03T20:43:35.810Z,18.73
2023-08-03T20:46:09.868Z,18.71
2023-08-03T20:48:40.946Z,18.67
2023-08-03T20:51:10.765Z,18.69
2023-08-03T20:53:41.488Z,18.70
2023-08-03T20:56:11.277Z,18.67
2023-08-03T20:58:40.914Z,18.67
2023-08-03T21:01:10.554Z,18.65
2023-08-03T21:03:43.203Z,18.60
2023-08-03T21:06:13.796Z,18.55
2023-08-03T21:08:43.408Z,18.52
2023-08-03T21:11:14.846Z,18.49
2023-08-03T21:13:45.499Z,18.45
2023-08-03T21:16:16.512Z,18.41
2023-08-03T21:21:22.843Z,18.30
2023-08-03T21:23:52.460Z,18.29
2023-08-03T21:26:22.128Z,18.24
2023-08-03T21:28:51.910Z,18.20
2023-08-03T21:31:21.722Z,18.14
2023-08-03T21:33:52.840Z,18.14
2023-08-03T21:36:22.534Z,18.11
2023-08-03T21:38:52.526Z,18.06
2023-08-03T21:41:22.115Z,18.01
2023-08-03T21:43:51.757Z,17.97
2023-08-03T21:46:21.774Z,17.93
2023-08-03T21:48:54.314Z,17.90
2023-08-03T21:51:23.997Z,17.87
2023-08-03T21:53:53.697Z,17.84
2023-08-03T21:56:23.386Z,17.80
2023-08-03T21:58:53.118Z,17.73
2023-08-03T22:01:22.831Z,17.66
2023-08-03T22:03:53.860Z,17.63
2023-08-03T22:06:23.886Z,17.62
2023-08-03T22:08:53.507Z,17.67
2023-08-03T22:11:23.402Z,17.67
2023-08-03T22:13:53.041Z,17.66
2023-08-03T22:16:22.830Z,17.63
2023-08-03T22:18:53.892Z,17.54
2023-08-03T22:21:23.564Z,17.50
2023-08-03T22:23:53.212Z,17.43
2023-08-03T22:26:22.980Z,17.40
2023-08-03T22:28:52.668Z,17.33
2023-08-03T22:31:22.311Z,17.30
2023-08-03T22:33:53.341Z,17.26
2023-08-03T22:36:22.993Z,17.25
2023-08-03T22:38:52.655Z,17.26
2023-08-03T22:41:22.284Z,17.31
2023-08-03T22:43:51.868Z,17.17
2023-08-03T22:46:23.068Z,17.06
2023-08-03T22:48:55.626Z,17.02
2023-08-03T22:51:25.399Z,16.99
2023-08-03T22:53:55.044Z,16.89
2023-08-03T22:56:24.688Z,16.79
2023-08-03T22:58:54.322Z,16.78
2023-08-03T23:01:24.785Z,16.66
2023-08-03T23:03:55.974Z,16.64
2023-08-03T23:06:26.993Z,16.62
2023-08-03T23:08:57.463Z,16.59
2023-08-03T23:11:27.257Z,16.57
2023-08-03T23:13:59.946Z,16.51
2023-08-03T23:16:29.648Z,16.50
2023-08-03T23:19:00.626Z,16.42
2023-08-03T23:21:30.186Z,16.34
2023-08-03T23:23:59.841Z,16.36
2023-08-03T23:26:29.312Z,16.33
2023-08-03T23:28:58.883Z,16.33
2023-08-03T23:31:28.606Z,16.25
2023-08-03T23:33:59.560Z,16.20
2023-08-03T23:36:29.096Z,16.14
2023-08-03T23:38:58.635Z,16.10
2023-08-03T23:41:28.064Z,16.03
2023-08-03T23:43:57.592Z,16.03
2023-08-03T23:46:27.118Z,15.97
2023-08-03T23:48:56.609Z,15.93
2023-08-03T23:51:27.468Z,15.90
2023-08-03T23:53:56.927Z,15.89
2023-08-03T23:56:26.388Z,15.91
2023-08-03T23:58:55.815Z,15.87
